sensor_id;sensor_type;location;lat;lon;timestamp;temperature;humidity
21121;DHT22;12519;43.318;21.898;2023-04-25T00:00:18;15.6;82.0
21121;DHT22;12519;43.318;21.898;2023-04-25T00:04:54;15.5;82.0
21121;DHT22;12519;43.318;21.898;2023-04-25T00:09:32;15.5;82.0
21121;DHT22;12519;43.318;21.898;2023-04-25T00:14:09;15.5;82.0
21121;DHT22;12519;43.318;21.898;2023-04-25T00:18:45;15.6;82.0
21121;DHT22;12519;43.318;21.898;2023-04-25T00:23:22;15.6;82.0
21121;DHT22;12519;43.318;21.898;2023-04-25T00:27:59;15.6;82.0
21121;DHT22;12519;43.318;21.898;2023-04-25T00:32:36;15.6;82.0
21121;DHT22;12519;43.318;21.898;2023-04-25T00:37:13;15.6;81.0
21121;DHT22;12519;43.318;21.898;2023-04-25T00:41:54;15.6;81.0
21121;DHT22;12519;43.318;21.898;2023-04-25T00:46:32;15.7;80.0
21121;DHT22;12519;43.318;21.898;2023-04-25T00:51:21;15.7;80.0
21121;DHT22;12519;43.318;21.898;2023-04-25T00:56:03;15.7;81.0
21121;DHT22;12519;43.318;21.898;2023-04-25T01:00:44;15.7;81.0
21121;DHT22;12519;43.318;21.898;2023-04-25T01:05:25;15.7;81.0
21121;DHT22;12519;43.318;21.898;2023-04-25T01:10:05;15.7;81.0
21121;DHT22;12519;43.318;21.898;2023-04-25T01:14:46;15.7;81.0
21121;DHT22;12519;43.318;21.898;2023-04-25T01:19:25;15.6;82.0
21121;DHT22;12519;43.318;21.898;2023-04-25T01:24:05;15.6;82.0
21121;DHT22;12519;43.318;21.898;2023-04-25T01:28:44;15.6;82.0
21121;DHT22;12519;43.318;21.898;2023-04-25T01:33:22;15.6;82.0
21121;DHT22;12519;43.318;21.898;2023-04-25T01:38:00;15.6;82.0
21121;DHT22;12519;43.318;21.898;2023-04-25T01:42:43;15.6;82.0
21121;DHT22;12519;43.318;21.898;2023-04-25T01:47:21;15.5;82.0
21121;DHT22;12519;43.318;21.898;2023-04-25T01:51:58;15.5;82.0
21121;DHT22;12519;43.318;21.898;2023-04-25T01:56:39;15.5;83.0
21121;DHT22;12519;43.318;21.898;2023-04-25T02:01:16;15.5;83.0
21121;DHT22;12519;43.318;21.898;2023-04-25T02:05:53;15.5;83.0
21121;DHT22;12519;43.318;21.898;2023-04-25T02:10:30;15.5;83.0
21121;DHT22;12519;43.318;21.898;2023-04-25T02:15:09;15.5;83.0
21121;DHT22;12519;43.318;21.898;2023-04-25T02:19:46;15.4;83.0
21121;DHT22;12519;43.318;21.898;2023-04-25T02:24:24;15.4;83.0
21121;DHT22;12519;43.318;21.898;2023-04-25T02:29:00;15.4;84.0
21121;DHT22;12519;43.318;21.898;2023-04-25T02:33:37;15.4;84.0
21121;DHT22;12519;43.318;21.898;2023-04-25T02:38:14;15.6;84.0
21121;DHT22;12519;43.318;21.898;2023-04-25T02:42:50;15.6;84.0
21121;DHT22;12519;43.318;21.898;2023-04-25T02:47:27;15.7;84.0
21121;DHT22;12519;43.318;21.898;2023-04-25T02:52:04;15.7;84.0
21121;DHT22;12519;43.318;21.898;2023-04-25T02:56:40;15.8;85.0
21121;DHT22;12519;43.318;21.898;2023-04-25T03:01:17;15.8;85.0
21121;DHT22;12519;43.318;21.898;2023-04-25T03:05:53;15.8;86.0
21121;DHT22;12519;43.318;21.898;2023-04-25T03:10:30;15.8;86.0
21121;DHT22;12519;43.318;21.898;2023-04-25T03:15:09;15.8;86.0
21121;DHT22;12519;43.318;21.898;2023-04-25T03:19:46;15.9;86.0
21121;DHT22;12519;43.318;21.898;2023-04-25T03:24:24;15.9;86.0
21121;DHT22;12519;43.318;21.898;2023-04-25T03:29:01;16.0;87.0
21121;DHT22;12519;43.318;21.898;2023-04-25T03:33:38;16.0;87.0
21121;DHT22;12519;43.318;21.898;2023-04-25T03:38:16;16.0;87.0
21121;DHT22;12519;43.318;21.898;2023-04-25T03:42:54;16.0;87.0
21121;DHT22;12519;43.318;21.898;2023-04-25T03:47:31;16.0;87.0
21121;DHT22;12519;43.318;21.898;2023-04-25T03:52:08;16.0;87.0
21121;DHT22;12519;43.318;21.898;2023-04-25T03:56:45;16.0;87.0
21121;DHT22;12519;43.318;21.898;2023-04-25T04:01:21;16.0;87.0
21121;DHT22;12519;43.318;21.898;2023-04-25T04:05:58;16.1;87.0
21121;DHT22;12519;43.318;21.898;2023-04-25T04:10:34;16.1;87.0
21121;DHT22;12519;43.318;21.898;2023-04-25T04:15:11;16.1;87.0
21121;DHT22;12519;43.318;21.898;2023-04-25T04:19:48;17.0;85.0
21121;DHT22;12519;43.318;21.898;2023-04-25T04:24:25;17.0;85.0
21121;DHT22;12519;43.318;21.898;2023-04-25T04:29:01;17.9;83.0
21121;DHT22;12519;43.318;21.898;2023-04-25T04:33:38;17.9;83.0
21121;DHT22;12519;43.318;21.898;2023-04-25T04:38:14;18.0;82.0
21121;DHT22;12519;43.318;21.898;2023-04-25T04:42:51;18.0;82.0
21121;DHT22;12519;43.318;21.898;2023-04-25T04:47:28;18.0;80.0
21121;DHT22;12519;43.318;21.898;2023-04-25T04:52:04;18.0;80.0
21121;DHT22;12519;43.318;21.898;2023-04-25T04:56:41;17.6;82.0
21121;DHT22;12519;43.318;21.898;2023-04-25T05:01:17;17.6;82.0
21121;DHT22;12519;43.318;21.898;2023-04-25T05:05:55;17.1;84.0
21121;DHT22;12519;43.318;21.898;2023-04-25T05:10:32;17.1;84.0
21121;DHT22;12519;43.318;21.898;2023-04-25T05:15:11;17.1;84.0
21121;DHT22;12519;43.318;21.898;2023-04-25T05:19:47;18.0;82.0
21121;DHT22;12519;43.318;21.898;2023-04-25T05:24:23;18.0;82.0
21121;DHT22;12519;43.318;21.898;2023-04-25T05:29:00;19.0;80.0
21121;DHT22;12519;43.318;21.898;2023-04-25T05:33:37;19.0;80.0
21121;DHT22;12519;43.318;21.898;2023-04-25T05:38:14;18.8;79.0
21121;DHT22;12519;43.318;21.898;2023-04-25T05:42:50;18.8;79.0
21121;DHT22;12519;43.318;21.898;2023-04-25T05:47:27;18.6;79.0
21121;DHT22;12519;43.318;21.898;2023-04-25T05:52:04;18.6;79.0
21121;DHT22;12519;43.318;21.898;2023-04-25T05:56:42;18.2;80.0
21121;DHT22;12519;43.318;21.898;2023-04-25T06:01:19;18.2;80.0
21121;DHT22;12519;43.318;21.898;2023-04-25T06:05:58;17.7;81.0
21121;DHT22;12519;43.318;21.898;2023-04-25T06:10:35;17.7;81.0
21121;DHT22;12519;43.318;21.898;2023-04-25T06:15:13;17.7;81.0
21121;DHT22;12519;43.318;21.898;2023-04-25T06:19:51;17.4;82.0
21121;DHT22;12519;43.318;21.898;2023-04-25T06:24:28;17.4;82.0
21121;DHT22;12519;43.318;21.898;2023-04-25T06:29:05;17.0;84.0
21121;DHT22;12519;43.318;21.898;2023-04-25T06:33:43;17.0;84.0
21121;DHT22;12519;43.318;21.898;2023-04-25T06:38:19;17.0;84.0
21121;DHT22;12519;43.318;21.898;2023-04-25T06:42:56;17.0;84.0
21121;DHT22;12519;43.318;21.898;2023-04-25T06:47:32;16.9;84.0
21121;DHT22;12519;43.318;21.898;2023-04-25T06:52:09;16.9;84.0
21121;DHT22;12519;43.318;21.898;2023-04-25T06:56:46;17.0;84.0
21121;DHT22;12519;43.318;21.898;2023-04-25T07:01:22;17.0;84.0
21121;DHT22;12519;43.318;21.898;2023-04-25T07:05:59;17.1;84.0
21121;DHT22;12519;43.318;21.898;2023-04-25T07:10:35;17.1;84.0
21121;DHT22;12519;43.318;21.898;2023-04-25T07:15:12;17.1;84.0
21121;DHT22;12519;43.318;21.898;2023-04-25T07:19:49;17.2;83.0
21121;DHT22;12519;43.318;21.898;2023-04-25T07:24:25;17.2;83.0
21121;DHT22;12519;43.318;21.898;2023-04-25T07:29:02;17.3;83.0
21121;DHT22;12519;43.318;21.898;2023-04-25T07:33:38;17.3;83.0
21121;DHT22;12519;43.318;21.898;2023-04-25T07:38:15;17.5;82.0
21121;DHT22;12519;43.318;21.898;2023-04-25T07:42:52;17.5;82.0
21121;DHT22;12519;43.318;21.898;2023-04-25T07:47:29;17.6;81.0
21121;DHT22;12519;43.318;21.898;2023-04-25T07:52:06;17.6;81.0
21121;DHT22;12519;43.318;21.898;2023-04-25T07:56:42;17.5;80.0
21121;DHT22;12519;43.318;21.898;2023-04-25T08:01:19;17.5;80.0
21121;DHT22;12519;43.318;21.898;2023-04-25T08:05:55;17.4;79.0
21121;DHT22;12519;43.318;21.898;2023-04-25T08:10:32;17.4;79.0
21121;DHT22;12519;43.318;21.898;2023-04-25T08:15:11;17.4;79.0
21121;DHT22;12519;43.318;21.898;2023-04-25T08:19:48;17.6;78.0
21121;DHT22;12519;43.318;21.898;2023-04-25T08:24:24;17.6;78.0
21121;DHT22;12519;43.318;21.898;2023-04-25T08:29:01;17.9;78.0
21121;DHT22;12519;43.318;21.898;2023-04-25T08:33:38;17.9;78.0
21121;DHT22;12519;43.318;21.898;2023-04-25T08:38:15;18.0;78.0
21121;DHT22;12519;43.318;21.898;2023-04-25T08:42:58;18.0;78.0
21121;DHT22;12519;43.318;21.898;2023-04-25T08:47:39;18.2;78.0
21121;DHT22;12519;43.318;21.898;2023-04-25T08:52:35;18.2;78.0
21121;DHT22;12519;43.318;21.898;2023-04-25T08:57:23;18.0;80.0
21121;DHT22;12519;43.318;21.898;2023-04-25T09:02:04;18.0;80.0
21121;DHT22;12519;43.318;21.898;2023-04-25T09:06:41;17.8;83.0
21121;DHT22;12519;43.318;21.898;2023-04-25T09:11:19;17.8;83.0
21121;DHT22;12519;43.318;21.898;2023-04-25T09:15:59;17.8;83.0
21121;DHT22;12519;43.318;21.898;2023-04-25T09:20:44;17.7;84.0
21121;DHT22;12519;43.318;21.898;2023-04-25T09:25:21;17.7;84.0
21121;DHT22;12519;43.318;21.898;2023-04-25T09:29:59;17.6;86.0
21121;DHT22;12519;43.318;21.898;2023-04-25T09:34:43;17.6;86.0
21121;DHT22;12519;43.318;21.898;2023-04-25T09:39:22;17.5;87.0
21121;DHT22;12519;43.318;21.898;2023-04-25T09:43:59;17.5;87.0
21121;DHT22;12519;43.318;21.898;2023-04-25T09:48:35;17.4;88.0
21121;DHT22;12519;43.318;21.898;2023-04-25T09:53:12;17.4;88.0
21121;DHT22;12519;43.318;21.898;2023-04-25T09:58:05;16.5;91.0
21121;DHT22;12519;43.318;21.898;2023-04-25T10:02:50;16.5;91.0
21121;DHT22;12519;43.318;21.898;2023-04-25T10:07:36;15.6;94.0
21121;DHT22;12519;43.318;21.898;2023-04-25T10:12:16;15.6;94.0
21121;DHT22;12519;43.318;21.898;2023-04-25T10:16:57;15.6;96.0
21121;DHT22;12519;43.318;21.898;2023-04-25T10:21:52;15.6;96.0
21121;DHT22;12519;43.318;21.898;2023-04-25T10:26:40;15.6;97.0
21121;DHT22;12519;43.318;21.898;2023-04-25T10:31:18;15.6;97.0
21121;DHT22;12519;43.318;21.898;2023-04-25T10:35:58;15.6;97.0
21121;DHT22;12519;43.318;21.898;2023-04-25T10:41:06;15.8;96.0
21121;DHT22;12519;43.318;21.898;2023-04-25T10:45:52;15.8;96.0
21121;DHT22;12519;43.318;21.898;2023-04-25T10:50:38;15.9;95.0
21121;DHT22;12519;43.318;21.898;2023-04-25T10:55:15;15.9;95.0
21121;DHT22;12519;43.318;21.898;2023-04-25T10:59:52;16.0;94.0
21121;DHT22;12519;43.318;21.898;2023-04-25T11:04:33;16.0;94.0
21121;DHT22;12519;43.318;21.898;2023-04-25T11:09:13;16.1;93.0
21121;DHT22;12519;43.318;21.898;2023-04-25T11:13:50;16.1;93.0
21121;DHT22;12519;43.318;21.898;2023-04-25T11:18:28;16.0;92.0
21121;DHT22;12519;43.318;21.898;2023-04-25T11:23:05;16.0;92.0
21121;DHT22;12519;43.318;21.898;2023-04-25T11:27:53;15.8;90.0
21121;DHT22;12519;43.318;21.898;2023-04-25T11:32:35;15.8;90.0
21121;DHT22;12519;43.318;21.898;2023-04-25T11:37:13;15.8;90.0
21121;DHT22;12519;43.318;21.898;2023-04-25T11:41:53;15.8;90.0
21121;DHT22;12519;43.318;21.898;2023-04-25T11:46:34;15.7;90.0
21121;DHT22;12519;43.318;21.898;2023-04-25T11:51:12;15.7;90.0
21121;DHT22;12519;43.318;21.898;2023-04-25T11:55:49;15.7;90.0
21121;DHT22;12519;43.318;21.898;2023-04-25T12:00:27;16.0;87.0
21121;DHT22;12519;43.318;21.898;2023-04-25T12:05:08;16.0;87.0
21121;DHT22;12519;43.318;21.898;2023-04-25T12:09:52;16.3;84.0
21121;DHT22;12519;43.318;21.898;2023-04-25T12:14:35;16.3;84.0
21121;DHT22;12519;43.318;21.898;2023-04-25T12:19:16;16.5;83.0
21121;DHT22;12519;43.318;21.898;2023-04-25T12:23:55;16.5;83.0
21121;DHT22;12519;43.318;21.898;2023-04-25T12:28:33;16.6;82.0
21121;DHT22;12519;43.318;21.898;2023-04-25T12:33:09;16.6;82.0
21121;DHT22;12519;43.318;21.898;2023-04-25T12:37:46;17.4;81.0
21121;DHT22;12519;43.318;21.898;2023-04-25T12:42:22;17.4;81.0
21121;DHT22;12519;43.318;21.898;2023-04-25T12:46:59;18.1;79.0
21121;DHT22;12519;43.318;21.898;2023-04-25T12:51:37;18.1;79.0
21121;DHT22;12519;43.318;21.898;2023-04-25T12:56:14;18.1;79.0
21121;DHT22;12519;43.318;21.898;2023-04-25T13:00:50;17.8;78.0
21121;DHT22;12519;43.318;21.898;2023-04-25T13:05:27;17.8;78.0
21121;DHT22;12519;43.318;21.898;2023-04-25T13:10:07;17.6;76.0
21121;DHT22;12519;43.318;21.898;2023-04-25T13:14:44;17.6;76.0
21121;DHT22;12519;43.318;21.898;2023-04-25T13:19:21;17.4;77.0
21121;DHT22;12519;43.318;21.898;2023-04-25T13:23:57;17.4;77.0
21121;DHT22;12519;43.318;21.898;2023-04-25T13:28:34;17.2;77.0
21121;DHT22;12519;43.318;21.898;2023-04-25T13:33:11;17.2;77.0
21121;DHT22;12519;43.318;21.898;2023-04-25T13:37:48;17.0;77.0
21121;DHT22;12519;43.318;21.898;2023-04-25T13:42:25;17.0;77.0
21121;DHT22;12519;43.318;21.898;2023-04-25T13:47:01;16.8;78.0
21121;DHT22;12519;43.318;21.898;2023-04-25T13:51:39;16.8;78.0
21121;DHT22;12519;43.318;21.898;2023-04-25T13:56:17;16.8;78.0
21121;DHT22;12519;43.318;21.898;2023-04-25T14:00:54;16.6;78.0
21121;DHT22;12519;43.318;21.898;2023-04-25T14:05:31;16.6;78.0
21121;DHT22;12519;43.318;21.898;2023-04-25T14:10:10;16.5;79.0
21121;DHT22;12519;43.318;21.898;2023-04-25T14:14:47;16.5;79.0
21121;DHT22;12519;43.318;21.898;2023-04-25T14:19:24;16.4;82.0
21121;DHT22;12519;43.318;21.898;2023-04-25T14:24:02;16.4;82.0
21121;DHT22;12519;43.318;21.898;2023-04-25T14:28:40;16.2;84.0
21121;DHT22;12519;43.318;21.898;2023-04-25T14:33:17;16.2;84.0
21121;DHT22;12519;43.318;21.898;2023-04-25T14:37:54;16.2;86.0
21121;DHT22;12519;43.318;21.898;2023-04-25T14:42:31;16.2;86.0
21121;DHT22;12519;43.318;21.898;2023-04-25T14:47:08;16.1;87.0
21121;DHT22;12519;43.318;21.898;2023-04-25T14:51:44;16.1;87.0
21121;DHT22;12519;43.318;21.898;2023-04-25T14:56:22;16.1;87.0
21121;DHT22;12519;43.318;21.898;2023-04-25T15:00:59;16.5;88.0
21121;DHT22;12519;43.318;21.898;2023-04-25T15:05:36;16.5;88.0
21121;DHT22;12519;43.318;21.898;2023-04-25T15:10:13;16.8;89.0
21121;DHT22;12519;43.318;21.898;2023-04-25T15:14:50;16.8;89.0
21121;DHT22;12519;43.318;21.898;2023-04-25T15:19:27;17.4;86.0
21121;DHT22;12519;43.318;21.898;2023-04-25T15:24:05;17.4;86.0
21121;DHT22;12519;43.318;21.898;2023-04-25T15:28:42;18.0;84.0
21121;DHT22;12519;43.318;21.898;2023-04-25T15:33:19;18.0;84.0
21121;DHT22;12519;43.318;21.898;2023-04-25T15:37:56;17.2;86.0
21121;DHT22;12519;43.318;21.898;2023-04-25T15:42:32;17.2;86.0
21121;DHT22;12519;43.318;21.898;2023-04-25T15:47:09;16.5;88.0
21121;DHT22;12519;43.318;21.898;2023-04-25T15:51:46;16.5;88.0
21121;DHT22;12519;43.318;21.898;2023-04-25T15:56:22;16.5;88.0
21121;DHT22;12519;43.318;21.898;2023-04-25T16:00:59;16.4;89.0
21121;DHT22;12519;43.318;21.898;2023-04-25T16:05:36;16.4;89.0
21121;DHT22;12519;43.318;21.898;2023-04-25T16:10:14;16.2;89.0
21121;DHT22;12519;43.318;21.898;2023-04-25T16:14:54;16.2;89.0
21121;DHT22;12519;43.318;21.898;2023-04-25T16:19:30;16.1;89.0
21121;DHT22;12519;43.318;21.898;2023-04-25T16:24:08;16.1;89.0
21121;DHT22;12519;43.318;21.898;2023-04-25T16:28:45;16.0;89.0
21121;DHT22;12519;43.318;21.898;2023-04-25T16:33:22;16.0;89.0
21121;DHT22;12519;43.318;21.898;2023-04-25T16:38:00;15.8;89.0
21121;DHT22;12519;43.318;21.898;2023-04-25T16:42:37;15.8;89.0
21121;DHT22;12519;43.318;21.898;2023-04-25T16:47:14;15.7;89.0
21121;DHT22;12519;43.318;21.898;2023-04-25T16:51:52;15.7;89.0
21121;DHT22;12519;43.318;21.898;2023-04-25T16:56:29;15.7;89.0
21121;DHT22;12519;43.318;21.898;2023-04-25T17:01:06;15.6;89.0
21121;DHT22;12519;43.318;21.898;2023-04-25T17:05:43;15.6;89.0
21121;DHT22;12519;43.318;21.898;2023-04-25T17:10:20;15.5;89.0
21121;DHT22;12519;43.318;21.898;2023-04-25T17:14:57;15.5;89.0
21121;DHT22;12519;43.318;21.898;2023-04-25T17:19:34;15.6;89.0
21121;DHT22;12519;43.318;21.898;2023-04-25T17:24:10;15.6;89.0
21121;DHT22;12519;43.318;21.898;2023-04-25T17:28:47;15.6;89.0
21121;DHT22;12519;43.318;21.898;2023-04-25T17:33:23;15.6;89.0
21121;DHT22;12519;43.318;21.898;2023-04-25T17:38:00;15.6;92.0
21121;DHT22;12519;43.318;21.898;2023-04-25T17:42:38;15.6;92.0
21121;DHT22;12519;43.318;21.898;2023-04-25T17:47:16;15.5;96.0
21121;DHT22;12519;43.318;21.898;2023-04-25T17:51:53;15.5;96.0
21121;DHT22;12519;43.318;21.898;2023-04-25T17:56:29;15.5;96.0
21121;DHT22;12519;43.318;21.898;2023-04-25T18:01:06;16.0;97.0
21121;DHT22;12519;43.318;21.898;2023-04-25T18:05:43;16.0;97.0
21121;DHT22;12519;43.318;21.898;2023-04-25T18:10:20;16.5;98.0
21121;DHT22;12519;43.318;21.898;2023-04-25T18:14:57;16.5;98.0
21121;DHT22;12519;43.318;21.898;2023-04-25T18:19:33;16.6;96.0
21121;DHT22;12519;43.318;21.898;2023-04-25T18:24:11;16.6;96.0
21121;DHT22;12519;43.318;21.898;2023-04-25T18:28:48;16.6;94.0
21121;DHT22;12519;43.318;21.898;2023-04-25T18:33:24;16.6;94.0
21121;DHT22;12519;43.318;21.898;2023-04-25T18:38:01;16.0;95.0
21121;DHT22;12519;43.318;21.898;2023-04-25T18:42:37;16.0;95.0
21121;DHT22;12519;43.318;21.898;2023-04-25T18:47:14;15.4;96.0
21121;DHT22;12519;43.318;21.898;2023-04-25T18:51:51;15.4;96.0
21121;DHT22;12519;43.318;21.898;2023-04-25T18:56:28;15.4;96.0
21121;DHT22;12519;43.318;21.898;2023-04-25T19:01:05;15.2;97.0
21121;DHT22;12519;43.318;21.898;2023-04-25T19:05:42;15.2;97.0
21121;DHT22;12519;43.318;21.898;2023-04-25T19:10:19;15.1;97.0
21121;DHT22;12519;43.318;21.898;2023-04-25T19:14:55;15.1;97.0
21121;DHT22;12519;43.318;21.898;2023-04-25T19:19:32;14.8;98.0
21121;DHT22;12519;43.318;21.898;2023-04-25T19:24:10;14.8;98.0
21121;DHT22;12519;43.318;21.898;2023-04-25T19:29:01;14.4;98.0
21121;DHT22;12519;43.318;21.898;2023-04-25T19:33:44;14.4;98.0
21121;DHT22;12519;43.318;21.898;2023-04-25T19:38:21;14.2;99.0
21121;DHT22;12519;43.318;21.898;2023-04-25T19:42:59;14.2;99.0
21121;DHT22;12519;43.318;21.898;2023-04-25T19:47:36;14.0;100.0
21121;DHT22;12519;43.318;21.898;2023-04-25T19:52:13;14.0;100.0
21121;DHT22;12519;43.318;21.898;2023-04-25T19:56:50;14.0;100.0
21121;DHT22;12519;43.318;21.898;2023-04-25T20:01:27;14.0;100.0
21121;DHT22;12519;43.318;21.898;2023-04-25T20:06:03;14.0;100.0
21121;DHT22;12519;43.318;21.898;2023-04-25T20:10:40;14.0;100.0
21121;DHT22;12519;43.318;21.898;2023-04-25T20:15:17;14.0;100.0
21121;DHT22;12519;43.318;21.898;2023-04-25T20:19:53;14.1;100.0
21121;DHT22;12519;43.318;21.898;2023-04-25T20:24:30;14.1;100.0
21121;DHT22;12519;43.318;21.898;2023-04-25T20:29:07;14.2;100.0
21121;DHT22;12519;43.318;21.898;2023-04-25T20:33:44;14.2;100.0
21121;DHT22;12519;43.318;21.898;2023-04-25T20:38:22;14.2;100.0
21121;DHT22;12519;43.318;21.898;2023-04-25T20:42:58;14.2;100.0
21121;DHT22;12519;43.318;21.898;2023-04-25T20:47:35;14.1;100.0
21121;DHT22;12519;43.318;21.898;2023-04-25T20:52:11;14.1;100.0
21121;DHT22;12519;43.318;21.898;2023-04-25T20:56:48;14.1;100.0
21121;DHT22;12519;43.318;21.898;2023-04-25T21:01:25;14.0;100.0
21121;DHT22;12519;43.318;21.898;2023-04-25T21:06:03;14.0;100.0
21121;DHT22;12519;43.318;21.898;2023-04-25T21:10:40;14.0;100.0
21121;DHT22;12519;43.318;21.898;2023-04-25T21:15:18;14.0;100.0
21121;DHT22;12519;43.318;21.898;2023-04-25T21:19:54;14.0;99.0
21121;DHT22;12519;43.318;21.898;2023-04-25T21:24:30;14.0;99.0
21121;DHT22;12519;43.318;21.898;2023-04-25T21:29:07;13.9;99.0
21121;DHT22;12519;43.318;21.898;2023-04-25T21:33:44;13.9;99.0
21121;DHT22;12519;43.318;21.898;2023-04-25T21:38:20;13.8;99.0
21121;DHT22;12519;43.318;21.898;2023-04-25T21:42:57;13.8;99.0
21121;DHT22;12519;43.318;21.898;2023-04-25T21:47:34;13.8;99.0
21121;DHT22;12519;43.318;21.898;2023-04-25T21:52:11;13.8;99.0
21121;DHT22;12519;43.318;21.898;2023-04-25T21:56:49;13.8;99.0
21121;DHT22;12519;43.318;21.898;2023-04-25T22:01:26;14.0;99.0
21121;DHT22;12519;43.318;21.898;2023-04-25T22:06:03;14.0;99.0
21121;DHT22;12519;43.318;21.898;2023-04-25T22:10:41;14.3;98.0
21121;DHT22;12519;43.318;21.898;2023-04-25T22:15:20;14.3;98.0
21121;DHT22;12519;43.318;21.898;2023-04-25T22:19:58;14.0;98.0
21121;DHT22;12519;43.318;21.898;2023-04-25T22:24:36;14.0;98.0
21121;DHT22;12519;43.318;21.898;2023-04-25T22:29:14;13.8;98.0
21121;DHT22;12519;43.318;21.898;2023-04-25T22:33:51;13.8;98.0
21121;DHT22;12519;43.318;21.898;2023-04-25T22:38:28;13.6;99.0
21121;DHT22;12519;43.318;21.898;2023-04-25T22:43:04;13.6;99.0
21121;DHT22;12519;43.318;21.898;2023-04-25T22:47:40;13.6;99.0
21121;DHT22;12519;43.318;21.898;2023-04-25T22:52:17;13.5;99.0
21121;DHT22;12519;43.318;21.898;2023-04-25T22:56:53;13.5;99.0
21121;DHT22;12519;43.318;21.898;2023-04-25T23:01:29;13.4;99.0
21121;DHT22;12519;43.318;21.898;2023-04-25T23:06:06;13.4;99.0
21121;DHT22;12519;43.318;21.898;2023-04-25T23:10:43;13.2;100.0
21121;DHT22;12519;43.318;21.898;2023-04-25T23:15:20;13.2;100.0
21121;DHT22;12519;43.318;21.898;2023-04-25T23:19:56;13.2;99.0
21121;DHT22;12519;43.318;21.898;2023-04-25T23:24:35;13.2;99.0
21121;DHT22;12519;43.318;21.898;2023-04-25T23:29:12;13.2;99.0
21121;DHT22;12519;43.318;21.898;2023-04-25T23:33:48;13.2;99.0
21121;DHT22;12519;43.318;21.898;2023-04-25T23:38:25;13.2;99.0
21121;DHT22;12519;43.318;21.898;2023-04-25T23:43:02;13.2;99.0
21121;DHT22;12519;43.318;21.898;2023-04-25T23:47:39;13.2;99.0
21121;DHT22;12519;43.318;21.898;2023-04-25T23:52:15;13.1;99.0
21121;DHT22;12519;43.318;21.898;2023-04-25T23:56:52;13.1;99.0
